sensor_id;sensor_type;location;lat;lon;timestamp;pressure;altitude;pressure_sealevel;temperature;humidity
54417;BME280;40326;51.220;7.250;2022-10-15T00:00:30;97699.16;;;13.78;100.00
54417;BME280;40326;51.220;7.250;2022-10-15T00:02:56;97695.75;;;13.67;100.00
54417;BME280;40326;51.220;7.250;2022-10-15T00:05:21;97697.50;;;13.66;100.00
54417;BME280;40326;51.220;7.250;2022-10-15T00:07:47;97698.19;;;13.68;100.00
54417;BME280;40326;51.220;7.250;2022-10-15T00:10:13;97702.03;;;13.62;100.00
54417;BME280;40326;51.220;7.250;2022-10-15T00:12:39;97698.19;;;13.68;100.00
54417;BME280;40326;51.220;7.250;2022-10-15T00:15:05;97691.16;;;13.59;100.00
54417;BME280;40326;51.220;7.250;2022-10-15T00:17:32;97685.19;;;13.58;100.00
54417;BME280;40326;51.220;7.250;2022-10-15T00:19:57;97679.81;;;13.61;100.00
54417;BME280;40326;51.220;7.250;2022-10-15T00:22:22;97685.03;;;13.49;100.00
54417;BME280;40326;51.220;7.250;2022-10-15T00:24:48;97679.91;;;13.49;100.00
54417;BME280;40326;51.220;7.250;2022-10-15T00:27:13;97679.53;;;13.42;100.00
54417;BME280;40326;51.220;7.250;2022-10-15T00:29:38;97677.06;;;13.41;100.00
54417;BME280;40326;51.220;7.250;2022-10-15T00:32:04;97677.06;;;13.41;100.00
54417;BME280;40326;51.220;7.250;2022-10-15T00:34:29;97680.97;;;13.22;100.00
54417;BME280;40326;51.220;7.250;2022-10-15T00:36:54;97687.03;;;13.21;100.00
54417;BME280;40326;51.220;7.250;2022-10-15T00:39:20;97674.91;;;13.23;100.00
54417;BME280;40326;51.220;7.250;2022-10-15T00:41:45;97673.16;;;13.11;100.00
54417;BME280;40326;51.220;7.250;2022-10-15T00:46:47;97669.50;;;13.02;100.00
54417;BME280;40326;51.220;7.250;2022-10-15T00:49:33;97665.44;;;13.11;100.00
54417;BME280;40326;51.220;7.250;2022-10-15T00:52:06;97667.31;;;13.09;100.00
54417;BME280;40326;51.220;7.250;2022-10-15T00:54:57;97662.06;;;13.11;100.00
54417;BME280;40326;51.220;7.250;2022-10-15T00:57:24;97668.94;;;13.10;100.00
54417;BME280;40326;51.220;7.250;2022-10-15T00:59:53;97666.50;;;13.08;100.00
54417;BME280;40326;51.220;7.250;2022-10-15T01:02:21;97663.44;;;13.27;100.00
54417;BME280;40326;51.220;7.250;2022-10-15T01:04:47;97666.25;;;13.24;100.00
54417;BME280;40326;51.220;7.250;2022-10-15T01:07:13;97657.72;;;13.24;100.00
54417;BME280;40326;51.220;7.250;2022-10-15T01:09:39;97656.78;;;13.25;100.00
54417;BME280;40326;51.220;7.250;2022-10-15T01:12:57;97655.53;;;13.30;100.00
54417;BME280;40326;51.220;7.250;2022-10-15T01:15:17;97660.66;;;13.30;100.00
54417;BME280;40326;51.220;7.250;2022-10-15T01:31:56;97658.31;;;13.03;100.00
54417;BME280;40326;51.220;7.250;2022-10-15T01:37:08;97665.00;;;13.17;100.00
54417;BME280;40326;51.220;7.250;2022-10-15T01:39:43;97667.47;;;13.19;100.00
54417;BME280;40326;51.220;7.250;2022-10-15T01:42:15;97668.75;;;13.13;100.00
54417;BME280;40326;51.220;7.250;2022-10-15T01:44:47;97669.75;;;13.11;100.00
54417;BME280;40326;51.220;7.250;2022-10-15T01:47:29;97675.63;;;13.13;100.00
54417;BME280;40326;51.220;7.250;2022-10-15T01:49:58;97672.03;;;13.15;100.00
54417;BME280;40326;51.220;7.250;2022-10-15T01:52:29;97672.94;;;13.14;100.00
54417;BME280;40326;51.220;7.250;2022-10-15T01:54:55;97673.81;;;13.02;100.00
54417;BME280;40326;51.220;7.250;2022-10-15T01:57:23;97670.38;;;13.14;100.00
54417;BME280;40326;51.220;7.250;2022-10-15T01:59:50;97670.97;;;13.18;100.00
54417;BME280;40326;51.220;7.250;2022-10-15T02:02:16;97663.38;;;13.16;100.00
54417;BME280;40326;51.220;7.250;2022-10-15T02:04:42;97660.66;;;13.30;100.00
54417;BME280;40326;51.220;7.250;2022-10-15T02:10:23;97652.03;;;13.19;100.00
54417;BME280;40326;51.220;7.250;2022-10-15T02:13:01;97651.53;;;13.26;100.00
54417;BME280;40326;51.220;7.250;2022-10-15T02:15:35;97652.16;;;13.17;100.00
54417;BME280;40326;51.220;7.250;2022-10-15T02:26:05;97665.31;;;13.25;100.00
54417;BME280;40326;51.220;7.250;2022-10-15T02:28:33;97663.00;;;13.33;100.00
54417;BME280;40326;51.220;7.250;2022-10-15T02:31:02;97660.66;;;13.30;100.00
54417;BME280;40326;51.220;7.250;2022-10-15T02:33:28;97663.72;;;13.35;100.00
54417;BME280;40326;51.220;7.250;2022-10-15T02:35:57;97658.44;;;13.37;100.00
54417;BME280;40326;51.220;7.250;2022-10-15T02:38:24;97654.63;;;13.43;100.00
54417;BME280;40326;51.220;7.250;2022-10-15T02:40:51;97655.53;;;13.30;100.00
54417;BME280;40326;51.220;7.250;2022-10-15T02:43:19;97666.53;;;13.44;100.00
54417;BME280;40326;51.220;7.250;2022-10-15T02:45:45;97665.16;;;13.40;100.00
54417;BME280;40326;51.220;7.250;2022-10-15T02:48:11;97670.06;;;13.43;100.00
54417;BME280;40326;51.220;7.250;2022-10-15T02:50:36;97673.41;;;13.32;100.00
54417;BME280;40326;51.220;7.250;2022-10-15T02:53:01;97670.28;;;13.40;100.00
54417;BME280;40326;51.220;7.250;2022-10-15T02:55:27;97671.66;;;13.32;100.00
54417;BME280;40326;51.220;7.250;2022-10-15T02:57:52;97673.09;;;13.48;100.00
54417;BME280;40326;51.220;7.250;2022-10-15T03:00:17;97682.31;;;13.39;100.00
54417;BME280;40326;51.220;7.250;2022-10-15T03:02:43;97672.59;;;13.31;100.00
54417;BME280;40326;51.220;7.250;2022-10-15T03:05:09;97670.28;;;13.40;100.00
54417;BME280;40326;51.220;7.250;2022-10-15T03:07:34;97667.00;;;13.38;100.00
54417;BME280;40326;51.220;7.250;2022-10-15T03:10:00;97674.63;;;13.39;100.00
54417;BME280;40326;51.220;7.250;2022-10-15T03:12:25;97675.44;;;13.40;100.00
54417;BME280;40326;51.220;7.250;2022-10-15T03:14:51;97679.56;;;13.29;100.00
54417;BME280;40326;51.220;7.250;2022-10-15T03:17:16;97675.63;;;13.37;100.00
54417;BME280;40326;51.220;7.250;2022-10-15T03:19:42;97667.66;;;13.28;100.00
54417;BME280;40326;51.220;7.250;2022-10-15T03:22:07;97654.19;;;13.49;100.00
54417;BME280;40326;51.220;7.250;2022-10-15T03:24:33;97643.16;;;13.47;100.00
54417;BME280;40326;51.220;7.250;2022-10-15T03:26:58;97649.22;;;13.34;100.00
54417;BME280;40326;51.220;7.250;2022-10-15T03:29:23;97655.06;;;13.37;100.00
54417;BME280;40326;51.220;7.250;2022-10-15T03:31:49;97659.75;;;13.31;100.00
54417;BME280;40326;51.220;7.250;2022-10-15T03:34:14;97653.44;;;13.35;100.00
54417;BME280;40326;51.220;7.250;2022-10-15T03:36:39;97642.59;;;13.43;100.00
54417;BME280;40326;51.220;7.250;2022-10-15T03:39:05;97629.38;;;13.48;100.00
54417;BME280;40326;51.220;7.250;2022-10-15T03:41:32;97632.88;;;13.47;100.00
54417;BME280;40326;51.220;7.250;2022-10-15T03:44:01;97633.94;;;13.44;100.00
54417;BME280;40326;51.220;7.250;2022-10-15T03:46:27;97619.06;;;13.37;100.00
54417;BME280;40326;51.220;7.250;2022-10-15T03:48:52;97623.06;;;13.41;100.00
54417;BME280;40326;51.220;7.250;2022-10-15T03:51:18;97629.59;;;13.33;100.00
54417;BME280;40326;51.220;7.250;2022-10-15T03:53:45;97623.19;;;13.39;100.00
54417;BME280;40326;51.220;7.250;2022-10-15T03:56:11;97629.81;;;13.30;100.00
54417;BME280;40326;51.220;7.250;2022-10-15T03:58:36;97636.25;;;13.36;100.00
54417;BME280;40326;51.220;7.250;2022-10-15T04:01:10;97628.16;;;13.29;100.00
54417;BME280;40326;51.220;7.250;2022-10-15T04:03:36;97623.13;;;13.28;100.00
54417;BME280;40326;51.220;7.250;2022-10-15T04:06:02;97625.38;;;13.32;100.00
54417;BME280;40326;51.220;7.250;2022-10-15T04:08:27;97636.34;;;13.70;100.00
54417;BME280;40326;51.220;7.250;2022-10-15T04:10:53;97624.84;;;13.51;100.00
54417;BME280;40326;51.220;7.250;2022-10-15T04:13:18;97631.34;;;13.33;100.00
54417;BME280;40326;51.220;7.250;2022-10-15T04:15:43;97635.66;;;13.32;100.00
54417;BME280;40326;51.220;7.250;2022-10-15T04:18:09;97642.44;;;13.33;100.00
54417;BME280;40326;51.220;7.250;2022-10-15T04:20:34;97644.03;;;13.23;100.00
54417;BME280;40326;51.220;7.250;2022-10-15T04:22:59;97650.16;;;13.33;100.00
54417;BME280;40326;51.220;7.250;2022-10-15T04:25:25;97636.81;;;13.28;100.00
54417;BME280;40326;51.220;7.250;2022-10-15T04:27:50;97644.47;;;13.41;100.00
54417;BME280;40326;51.220;7.250;2022-10-15T04:30:17;97633.97;;;13.20;100.00
54417;BME280;40326;51.220;7.250;2022-10-15T04:32:43;97645.00;;;13.33;100.00
54417;BME280;40326;51.220;7.250;2022-10-15T04:35:08;97649.91;;;13.37;100.00
54417;BME280;40326;51.220;7.250;2022-10-15T04:37:34;97643.59;;;13.29;100.00
54417;BME280;40326;51.220;7.250;2022-10-15T04:40:00;97655.88;;;13.37;100.00
54417;BME280;40326;51.220;7.250;2022-10-15T04:42:28;97649.72;;;13.40;100.00
54417;BME280;40326;51.220;7.250;2022-10-15T04:44:53;97660.66;;;13.30;100.00
54417;BME280;40326;51.220;7.250;2022-10-15T04:47:18;97666.25;;;13.24;100.00
54417;BME280;40326;51.220;7.250;2022-10-15T04:49:43;97663.81;;;13.10;100.00
54417;BME280;40326;51.220;7.250;2022-10-15T04:52:09;97661.81;;;13.26;100.00
54417;BME280;40326;51.220;7.250;2022-10-15T04:54:34;97662.66;;;13.38;100.00
54417;BME280;40326;51.220;7.250;2022-10-15T04:56:59;97664.81;;;13.20;100.00
54417;BME280;40326;51.220;7.250;2022-10-15T04:59:25;97657.84;;;13.22;100.00
54417;BME280;40326;51.220;7.250;2022-10-15T05:01:50;97655.53;;;13.30;100.00
54417;BME280;40326;51.220;7.250;2022-10-15T05:04:15;97656.19;;;13.21;100.00
54417;BME280;40326;51.220;7.250;2022-10-15T05:06:41;97653.28;;;13.26;100.00
54417;BME280;40326;51.220;7.250;2022-10-15T05:09:06;97651.88;;;13.22;100.00
54417;BME280;40326;51.220;7.250;2022-10-15T05:11:34;97647.47;;;13.35;100.00
54417;BME280;40326;51.220;7.250;2022-10-15T05:14:00;97631.78;;;13.27;100.00
54417;BME280;40326;51.220;7.250;2022-10-15T05:16:27;97622.31;;;13.27;100.00
54417;BME280;40326;51.220;7.250;2022-10-15T05:19:02;97619.97;;;13.24;100.00
54417;BME280;40326;51.220;7.250;2022-10-15T05:21:28;97629.91;;;13.29;100.00
54417;BME280;40326;51.220;7.250;2022-10-15T05:23:55;97633.53;;;13.26;100.00
54417;BME280;40326;51.220;7.250;2022-10-15T05:26:23;97637.63;;;13.29;100.00
54417;BME280;40326;51.220;7.250;2022-10-15T05:28:49;97634.34;;;13.27;100.00
54417;BME280;40326;51.220;7.250;2022-10-15T05:31:17;97629.25;;;13.14;100.00
54417;BME280;40326;51.220;7.250;2022-10-15T05:33:43;97627.00;;;13.22;100.00
54417;BME280;40326;51.220;7.250;2022-10-15T05:36:12;97631.41;;;13.20;100.00
54417;BME280;40326;51.220;7.250;2022-10-15T05:38:38;97635.78;;;13.07;100.00
54417;BME280;40326;51.220;7.250;2022-10-15T05:41:04;97644.97;;;13.22;100.00
54417;BME280;40326;51.220;7.250;2022-10-15T05:43:30;97642.66;;;13.06;100.00
54417;BME280;40326;51.220;7.250;2022-10-15T05:45:55;97649.44;;;13.07;100.00
54417;BME280;40326;51.220;7.250;2022-10-15T05:48:21;97658.66;;;13.10;100.00
54417;BME280;40326;51.220;7.250;2022-10-15T05:50:46;97661.34;;;13.08;100.00
54417;BME280;40326;51.220;7.250;2022-10-15T05:53:11;97667.94;;;13.13;100.00
54417;BME280;40326;51.220;7.250;2022-10-15T05:55:37;97663.56;;;13.26;100.00
54417;BME280;40326;51.220;7.250;2022-10-15T05:58:02;97669.63;;;13.25;100.00
54417;BME280;40326;51.220;7.250;2022-10-15T06:00:28;97666.25;;;13.24;100.00
54417;BME280;40326;51.220;7.250;2022-10-15T06:02:54;97658.47;;;13.13;100.00
54417;BME280;40326;51.220;7.250;2022-10-15T06:05:19;97663.69;;;13.24;100.00
54417;BME280;40326;51.220;7.250;2022-10-15T06:07:44;97662.16;;;13.22;100.00
54417;BME280;40326;51.220;7.250;2022-10-15T06:10:10;97656.09;;;13.23;100.00
54417;BME280;40326;51.220;7.250;2022-10-15T06:12:35;97654.97;;;13.14;100.00
54417;BME280;40326;51.220;7.250;2022-10-15T06:15:02;97660.41;;;13.22;100.00
54417;BME280;40326;51.220;7.250;2022-10-15T06:17:28;97656.66;;;13.26;100.00
54417;BME280;40326;51.220;7.250;2022-10-15T06:19:53;97656.47;;;13.17;100.00
54417;BME280;40326;51.220;7.250;2022-10-15T06:22:18;97661.94;;;13.25;100.00
54417;BME280;40326;51.220;7.250;2022-10-15T06:24:43;97667.88;;;13.25;100.00
54417;BME280;40326;51.220;7.250;2022-10-15T06:27:09;97667.78;;;13.27;100.00
54417;BME280;40326;51.220;7.250;2022-10-15T06:29:35;97673.19;;;13.35;100.00
54417;BME280;40326;51.220;7.250;2022-10-15T06:32:01;97676.09;;;13.30;100.00
54417;BME280;40326;51.220;7.250;2022-10-15T06:34:26;97672.84;;;13.40;100.00
54417;BME280;40326;51.220;7.250;2022-10-15T06:36:51;97680.47;;;13.41;100.00
54417;BME280;40326;51.220;7.250;2022-10-15T06:39:17;97687.78;;;13.34;100.00
54417;BME280;40326;51.220;7.250;2022-10-15T06:41:42;97684.44;;;13.45;100.00
54417;BME280;40326;51.220;7.250;2022-10-15T06:44:07;97685.75;;;13.51;100.00
54417;BME280;40326;51.220;7.250;2022-10-15T06:46:33;97692.50;;;13.41;100.00
54417;BME280;40326;51.220;7.250;2022-10-15T06:48:58;97690.69;;;13.65;100.00
54417;BME280;40326;51.220;7.250;2022-10-15T06:51:23;97680.81;;;13.48;100.00
54417;BME280;40326;51.220;7.250;2022-10-15T06:53:49;97688.09;;;13.54;100.00
54417;BME280;40326;51.220;7.250;2022-10-15T06:56:14;97692.44;;;13.64;100.00
54417;BME280;40326;51.220;7.250;2022-10-15T06:58:42;97694.19;;;13.64;100.00
54417;BME280;40326;51.220;7.250;2022-10-15T07:01:07;97690.75;;;13.76;100.00
54417;BME280;40326;51.220;7.250;2022-10-15T07:03:35;97687.88;;;13.57;100.00
54417;BME280;40326;51.220;7.250;2022-10-15T07:06:02;97690.34;;;13.58;100.00
54417;BME280;40326;51.220;7.250;2022-10-15T07:08:27;97691.16;;;13.59;100.00
54417;BME280;40326;51.220;7.250;2022-10-15T07:10:53;97691.41;;;13.67;100.00
54417;BME280;40326;51.220;7.250;2022-10-15T07:13:18;97687.09;;;13.79;100.00
54417;BME280;40326;51.220;7.250;2022-10-15T07:15:43;97677.97;;;13.75;100.00
54417;BME280;40326;51.220;7.250;2022-10-15T07:18:10;97678.59;;;13.89;100.00
54417;BME280;40326;51.220;7.250;2022-10-15T07:20:35;97674.13;;;13.80;100.00
54417;BME280;40326;51.220;7.250;2022-10-15T07:23:01;97673.44;;;13.78;100.00
54417;BME280;40326;51.220;7.250;2022-10-15T07:25:27;97674.13;;;13.91;100.00
54417;BME280;40326;51.220;7.250;2022-10-15T07:27:52;97665.97;;;13.98;100.00
54417;BME280;40326;51.220;7.250;2022-10-15T07:30:19;97666.22;;;14.17;100.00
54417;BME280;40326;51.220;7.250;2022-10-15T07:32:45;97668.22;;;14.02;100.00
54417;BME280;40326;51.220;7.250;2022-10-15T07:35:10;97661.41;;;14.35;100.00
54417;BME280;40326;51.220;7.250;2022-10-15T07:37:35;97655.09;;;14.16;100.00
54417;BME280;40326;51.220;7.250;2022-10-15T07:40:01;97651.00;;;14.14;100.00
54417;BME280;40326;51.220;7.250;2022-10-15T07:42:26;97640.00;;;14.23;100.00
54417;BME280;40326;51.220;7.250;2022-10-15T07:44:51;97646.06;;;13.88;100.00
54417;BME280;40326;51.220;7.250;2022-10-15T07:47:17;97661.13;;;13.82;100.00
54417;BME280;40326;51.220;7.250;2022-10-15T07:49:42;97656.38;;;13.88;100.00
54417;BME280;40326;51.220;7.250;2022-10-15T07:52:08;97652.47;;;13.83;100.00
54417;BME280;40326;51.220;7.250;2022-10-15T07:54:33;97652.16;;;13.76;100.00
54417;BME280;40326;51.220;7.250;2022-10-15T07:56:59;97656.03;;;14.04;100.00
54417;BME280;40326;51.220;7.250;2022-10-15T07:59:24;97658.25;;;14.09;100.00
54417;BME280;40326;51.220;7.250;2022-10-15T08:01:49;97662.00;;;14.05;100.00
54417;BME280;40326;51.220;7.250;2022-10-15T08:04:16;97663.41;;;14.31;100.00
54417;BME280;40326;51.220;7.250;2022-10-15T08:06:41;97658.16;;;14.22;100.00
54417;BME280;40326;51.220;7.250;2022-10-15T08:09:06;97645.75;;;14.49;100.00
54417;BME280;40326;51.220;7.250;2022-10-15T08:11:32;97634.63;;;14.60;100.00
54417;BME280;40326;51.220;7.250;2022-10-15T08:13:57;97625.69;;;14.75;100.00
54417;BME280;40326;51.220;7.250;2022-10-15T08:16:22;97623.41;;;14.93;100.00
54417;BME280;40326;51.220;7.250;2022-10-15T08:18:48;97618.19;;;14.83;100.00
54417;BME280;40326;51.220;7.250;2022-10-15T08:21:14;97616.28;;;14.85;100.00
54417;BME280;40326;51.220;7.250;2022-10-15T08:23:40;97618.91;;;14.63;100.00
54417;BME280;40326;51.220;7.250;2022-10-15T08:26:05;97623.81;;;15.09;100.00
54417;BME280;40326;51.220;7.250;2022-10-15T08:28:32;97608.53;;;14.31;100.00
54417;BME280;40326;51.220;7.250;2022-10-15T08:30:58;97615.16;;;14.56;100.00
54417;BME280;40326;51.220;7.250;2022-10-15T08:33:24;97603.97;;;14.23;100.00
54417;BME280;40326;51.220;7.250;2022-10-15T08:35:50;97601.03;;;14.50;100.00
54417;BME280;40326;51.220;7.250;2022-10-15T08:38:15;97597.84;;;14.35;100.00
54417;BME280;40326;51.220;7.250;2022-10-15T08:40:48;97602.75;;;14.61;100.00
54417;BME280;40326;51.220;7.250;2022-10-15T08:43:19;97603.69;;;14.60;100.00
54417;BME280;40326;51.220;7.250;2022-10-15T08:45:46;97609.31;;;14.54;100.00
54417;BME280;40326;51.220;7.250;2022-10-15T08:48:21;97614.13;;;14.58;100.00
54417;BME280;40326;51.220;7.250;2022-10-15T08:51:03;97607.66;;;14.64;100.00
54417;BME280;40326;51.220;7.250;2022-10-15T08:53:35;97605.72;;;14.88;100.00
54417;BME280;40326;51.220;7.250;2022-10-15T08:56:07;97600.53;;;14.99;100.00
54417;BME280;40326;51.220;7.250;2022-10-15T09:01:29;97585.72;;;15.33;100.00
54417;BME280;40326;51.220;7.250;2022-10-15T09:06:25;97591.69;;;15.34;100.00
54417;BME280;40326;51.220;7.250;2022-10-15T09:09:22;97584.78;;;16.16;100.00
54417;BME280;40326;51.220;7.250;2022-10-15T09:12:00;97577.53;;;15.91;100.00
54417;BME280;40326;51.220;7.250;2022-10-15T09:14:39;97577.34;;;15.41;100.00
54417;BME280;40326;51.220;7.250;2022-10-15T09:17:22;97575.66;;;15.51;100.00
54417;BME280;40326;51.220;7.250;2022-10-15T09:19:52;97578.16;;;15.83;100.00
54417;BME280;40326;51.220;7.250;2022-10-15T09:22:23;97565.63;;;15.79;100.00
54417;BME280;40326;51.220;7.250;2022-10-15T09:24:48;97559.97;;;15.85;100.00
54417;BME280;40326;51.220;7.250;2022-10-15T09:27:35;97543.19;;;16.00;100.00
54417;BME280;40326;51.220;7.250;2022-10-15T09:30:20;97550.81;;;16.11;100.00
54417;BME280;40326;51.220;7.250;2022-10-15T09:33:02;97544.22;;;16.38;100.00
54417;BME280;40326;51.220;7.250;2022-10-15T09:35:37;97541.66;;;16.48;100.00
54417;BME280;40326;51.220;7.250;2022-10-15T09:38:24;97545.78;;;16.79;100.00
54417;BME280;40326;51.220;7.250;2022-10-15T09:43:25;97532.56;;;16.03;100.00
54417;BME280;40326;51.220;7.250;2022-10-15T09:45:55;97533.97;;;16.17;100.00
54417;BME280;40326;51.220;7.250;2022-10-15T09:48:20;97543.31;;;16.08;100.00
54417;BME280;40326;51.220;7.250;2022-10-15T09:51:01;97531.28;;;16.18;100.00
54417;BME280;40326;51.220;7.250;2022-10-15T09:53:44;97551.94;;;16.18;100.00
54417;BME280;40326;51.220;7.250;2022-10-15T09:56:17;97562.44;;;15.96;100.00
54417;BME280;40326;51.220;7.250;2022-10-15T09:58:50;97557.28;;;15.96;100.00
54417;BME280;40326;51.220;7.250;2022-10-15T10:01:19;97567.22;;;15.70;100.00
54417;BME280;40326;51.220;7.250;2022-10-15T10:03:47;97560.41;;;16.40;100.00
54417;BME280;40326;51.220;7.250;2022-10-15T10:06:15;97555.50;;;16.37;100.00
54417;BME280;40326;51.220;7.250;2022-10-15T10:08:55;97539.53;;;16.72;100.00
54417;BME280;40326;51.220;7.250;2022-10-15T10:11:22;97534.22;;;16.73;100.00
54417;BME280;40326;51.220;7.250;2022-10-15T10:16:15;97539.75;;;16.59;100.00
54417;BME280;40326;51.220;7.250;2022-10-15T10:18:42;97532.72;;;17.00;100.00
54417;BME280;40326;51.220;7.250;2022-10-15T10:21:30;97521.78;;;17.35;100.00
54417;BME280;40326;51.220;7.250;2022-10-15T10:24:16;97512.56;;;17.03;100.00
54417;BME280;40326;51.220;7.250;2022-10-15T10:26:43;97503.31;;;18.40;100.00
54417;BME280;40326;51.220;7.250;2022-10-15T10:29:17;97495.81;;;18.19;100.00
54417;BME280;40326;51.220;7.250;2022-10-15T10:31:43;97495.69;;;17.09;100.00
54417;BME280;40326;51.220;7.250;2022-10-15T10:34:15;97504.69;;;16.76;100.00
54417;BME280;40326;51.220;7.250;2022-10-15T10:36:41;97502.91;;;16.77;100.00
54417;BME280;40326;51.220;7.250;2022-10-15T10:47:16;97528.59;;;16.49;100.00
54417;BME280;40326;51.220;7.250;2022-10-15T10:49:50;97538.91;;;16.39;100.00
54417;BME280;40326;51.220;7.250;2022-10-15T10:52:36;97544.97;;;15.79;100.00
54417;BME280;40326;51.220;7.250;2022-10-15T10:55:19;97567.00;;;16.13;100.00
54417;BME280;40326;51.220;7.250;2022-10-15T10:57:55;97561.47;;;16.28;100.00
54417;BME280;40326;51.220;7.250;2022-10-15T11:00:35;97552.94;;;16.46;100.00
54417;BME280;40326;51.220;7.250;2022-10-15T11:03:02;97552.28;;;16.54;100.00
54417;BME280;40326;51.220;7.250;2022-10-15T11:05:30;97549.06;;;16.81;100.00
54417;BME280;40326;51.220;7.250;2022-10-15T11:10:35;97534.06;;;17.04;100.00
54417;BME280;40326;51.220;7.250;2022-10-15T11:13:25;97539.22;;;16.65;100.00
54417;BME280;40326;51.220;7.250;2022-10-15T11:24:28;97519.63;;;17.11;100.00
54417;BME280;40326;51.220;7.250;2022-10-15T11:27:15;97514.19;;;17.05;100.00
54417;BME280;40326;51.220;7.250;2022-10-15T11:30:04;97507.44;;;17.41;100.00
54417;BME280;40326;51.220;7.250;2022-10-15T11:35:22;97496.84;;;17.24;100.00
54417;BME280;40326;51.220;7.250;2022-10-15T11:43:54;97504.63;;;17.24;100.00
54417;BME280;40326;51.220;7.250;2022-10-15T11:46:51;97499.34;;;16.97;100.00
54417;BME280;40326;51.220;7.250;2022-10-15T11:49:34;97498.50;;;17.25;100.00
54417;BME280;40326;51.220;7.250;2022-10-15T11:54:41;97506.56;;;17.03;100.00
54417;BME280;40326;51.220;7.250;2022-10-15T11:57:12;97502.06;;;17.05;100.00
54417;BME280;40326;51.220;7.250;2022-10-15T11:59:42;97499.31;;;17.16;100.00
54417;BME280;40326;51.220;7.250;2022-10-15T12:02:15;97500.28;;;17.15;100.00
54417;BME280;40326;51.220;7.250;2022-10-15T12:04:46;97507.34;;;17.23;100.00
54417;BME280;40326;51.220;7.250;2022-10-15T12:07:21;97501.53;;;17.01;100.00
54417;BME280;40326;51.220;7.250;2022-10-15T12:09:51;97497.72;;;16.96;100.00
54417;BME280;40326;51.220;7.250;2022-10-15T12:15:43;97507.28;;;16.86;100.00
54417;BME280;40326;51.220;7.250;2022-10-15T12:20:54;97510.13;;;16.92;100.00
54417;BME280;40326;51.220;7.250;2022-10-15T12:28:50;97515.47;;;16.71;100.00
54417;BME280;40326;51.220;7.250;2022-10-15T12:31:17;97512.56;;;16.65;100.00
54417;BME280;40326;51.220;7.250;2022-10-15T12:33:51;97508.22;;;16.85;100.00
54417;BME280;40326;51.220;7.250;2022-10-15T12:41:39;97504.13;;;17.01;100.00
54417;BME280;40326;51.220;7.250;2022-10-15T12:44:21;97500.13;;;17.26;100.00
54417;BME280;40326;51.220;7.250;2022-10-15T12:46:48;97482.75;;;17.56;100.00
54417;BME280;40326;51.220;7.250;2022-10-15T12:51:54;97477.00;;;17.62;100.00
54417;BME280;40326;51.220;7.250;2022-10-15T12:54:44;97487.06;;;17.28;100.00
54417;BME280;40326;51.220;7.250;2022-10-15T13:02:50;97489.91;;;17.35;100.00
54417;BME280;40326;51.220;7.250;2022-10-15T13:05:28;97485.88;;;17.03;100.00
54417;BME280;40326;51.220;7.250;2022-10-15T13:07:56;97503.06;;;16.85;100.00
54417;BME280;40326;51.220;7.250;2022-10-15T13:10:29;97515.44;;;16.91;100.00
54417;BME280;40326;51.220;7.250;2022-10-15T13:13:00;97521.81;;;16.87;100.00
54417;BME280;40326;51.220;7.250;2022-10-15T13:15:28;97525.22;;;16.97;100.00
54417;BME280;40326;51.220;7.250;2022-10-15T13:17:55;97519.22;;;17.06;100.00
54417;BME280;40326;51.220;7.250;2022-10-15T13:20:33;97525.91;;;17.09;100.00
54417;BME280;40326;51.220;7.250;2022-10-15T13:23:14;97522.91;;;17.03;100.00
54417;BME280;40326;51.220;7.250;2022-10-15T13:25:41;97523.72;;;17.04;100.00
54417;BME280;40326;51.220;7.250;2022-10-15T13:28:42;97534.72;;;17.35;100.00
54417;BME280;40326;51.220;7.250;2022-10-15T13:31:24;97521.38;;;17.20;100.00
54417;BME280;40326;51.220;7.250;2022-10-15T13:33:56;97523.00;;;17.31;100.00
54417;BME280;40326;51.220;7.250;2022-10-15T13:36:31;97519.28;;;17.53;100.00
54417;BME280;40326;51.220;7.250;2022-10-15T13:39:04;97503.56;;;17.64;100.00
54417;BME280;40326;51.220;7.250;2022-10-15T13:41:33;97504.47;;;17.82;100.00
54417;BME280;40326;51.220;7.250;2022-10-15T13:43:58;97496.59;;;17.74;100.00
54417;BME280;40326;51.220;7.250;2022-10-15T13:46:28;97492.19;;;17.84;100.00
54417;BME280;40326;51.220;7.250;2022-10-15T13:48:58;97496.69;;;17.45;100.00
54417;BME280;40326;51.220;7.250;2022-10-15T13:51:31;97504.06;;;17.30;100.00
54417;BME280;40326;51.220;7.250;2022-10-15T13:53:57;97509.75;;;17.44;100.00
54417;BME280;40326;51.220;7.250;2022-10-15T13:56:31;97508.09;;;17.43;100.00
54417;BME280;40326;51.220;7.250;2022-10-15T13:58:58;97510.81;;;17.51;100.00
54417;BME280;40326;51.220;7.250;2022-10-15T14:01:26;97512.59;;;17.50;100.00
54417;BME280;40326;51.220;7.250;2022-10-15T14:03:52;97518.47;;;17.43;100.00
54417;BME280;40326;51.220;7.250;2022-10-15T14:06:23;97504.44;;;17.45;100.00
54417;BME280;40326;51.220;7.250;2022-10-15T14:09:18;97488.44;;;17.59;100.00
54417;BME280;40326;51.220;7.250;2022-10-15T14:11:44;97489.19;;;17.89;100.00
54417;BME280;40326;51.220;7.250;2022-10-15T14:14:38;97482.28;;;17.80;100.00
54417;BME280;40326;51.220;7.250;2022-10-15T14:17:21;97481.88;;;17.65;100.00
54417;BME280;40326;51.220;7.250;2022-10-15T14:19:53;97490.75;;;17.63;100.00
54417;BME280;40326;51.220;7.250;2022-10-15T14:22:22;97492.13;;;17.57;100.00
54417;BME280;40326;51.220;7.250;2022-10-15T14:24:53;97488.47;;;17.50;100.00
54417;BME280;40326;51.220;7.250;2022-10-15T14:27:21;97489.25;;;17.60;100.00
54417;BME280;40326;51.220;7.250;2022-10-15T14:29:49;97488.91;;;17.45;100.00
54417;BME280;40326;51.220;7.250;2022-10-15T14:32:22;97480.81;;;17.58;100.00
54417;BME280;40326;51.220;7.250;2022-10-15T14:34:48;97498.50;;;17.35;100.00
54417;BME280;40326;51.220;7.250;2022-10-15T14:42:32;97493.81;;;17.48;100.00